createdAt,value
2022-08-19T00:00:51.874Z,19.93
2022-08-19T00:01:52.787Z,19.95
2022-08-19T00:02:50.914Z,19.87
2022-08-19T00:03:50.840Z,19.90
2022-08-19T00:04:50.911Z,19.91
2022-08-19T00:05:50.808Z,19.90
2022-08-19T00:06:50.875Z,20.03
2022-08-19T00:07:50.763Z,20.02
2022-08-19T00:08:50.758Z,20.08
2022-08-19T00:09:50.836Z,20.05
2022-08-19T00:10:50.744Z,20.06
2022-08-19T00:11:50.777Z,20.18
2022-08-19T00:12:50.885Z,20.10
2022-08-19T00:13:50.734Z,20.05
2022-08-19T00:14:50.718Z,20.16
2022-08-19T00:15:50.697Z,20.06
2022-08-19T00:16:50.668Z,20.10
2022-08-19T00:17:50.694Z,20.05
2022-08-19T00:18:50.675Z,20.02
2022-08-19T00:19:50.654Z,20.10
2022-08-19T00:20:50.629Z,20.13
2022-08-19T00:21:50.661Z,20.00
2022-08-19T00:22:50.700Z,20.03
2022-08-19T00:23:50.729Z,20.02
2022-08-19T00:24:51.093Z,19.88
2022-08-19T00:25:50.683Z,20.06
2022-08-19T00:26:50.644Z,20.00
2022-08-19T00:27:50.687Z,20.08
2022-08-19T00:28:50.711Z,19.97
2022-08-19T00:29:52.342Z,19.93
2022-08-19T00:30:50.716Z,20.03
2022-08-19T00:31:50.759Z,20.03
2022-08-19T00:32:50.583Z,20.09
2022-08-19T00:33:50.657Z,20.03
2022-08-19T00:34:50.574Z,20.09
2022-08-19T00:35:56.041Z,20.10
2022-08-19T00:36:51.553Z,20.06
2022-08-19T00:37:50.560Z,20.20
2022-08-19T00:38:50.629Z,20.13
2022-08-19T00:39:50.571Z,20.20
2022-08-19T00:40:50.597Z,20.20
2022-08-19T00:41:50.531Z,20.16
2022-08-19T00:42:50.582Z,20.28
2022-08-19T00:43:50.570Z,20.27
2022-08-19T00:44:50.468Z,20.21
2022-08-19T00:45:50.535Z,20.21
2022-08-19T00:46:55.248Z,20.18
2022-08-19T00:47:51.537Z,20.23
2022-08-19T00:48:50.484Z,20.23
2022-08-19T00:49:50.644Z,20.20
2022-08-19T00:50:52.037Z,20.24
2022-08-19T00:51:50.552Z,20.15
2022-08-19T00:52:50.517Z,20.18
2022-08-19T00:53:50.522Z,20.24
2022-08-19T00:54:52.646Z,20.18
2022-08-19T00:55:51.557Z,20.16
2022-08-19T00:56:50.453Z,20.20
2022-08-19T00:57:50.450Z,20.28
2022-08-19T00:58:50.461Z,20.21
2022-08-19T01:00:00.581Z,20.28
2022-08-19T01:00:51.437Z,20.27
2022-08-19T01:01:50.441Z,20.21
2022-08-19T01:02:50.447Z,20.31
2022-08-19T01:03:58.185Z,20.31
2022-08-19T01:04:51.416Z,20.33
2022-08-19T01:05:50.471Z,20.28
2022-08-19T01:06:50.300Z,20.20
2022-08-19T01:07:50.311Z,20.23
2022-08-19T01:08:50.403Z,20.20
2022-08-19T01:09:50.270Z,20.24
2022-08-19T01:10:50.292Z,20.15
2022-08-19T01:11:50.228Z,20.16
2022-08-19T01:12:50.334Z,20.12
2022-08-19T01:13:50.453Z,20.13
2022-08-19T01:14:51.228Z,20.15
2022-08-19T01:15:50.302Z,20.12
2022-08-19T01:16:50.246Z,20.20
2022-08-19T01:17:50.250Z,20.16
2022-08-19T01:18:50.244Z,20.18
2022-08-19T01:19:50.194Z,20.21
2022-08-19T01:20:50.309Z,20.24
2022-08-19T01:21:50.320Z,20.12
2022-08-19T01:22:50.251Z,20.24
2022-08-19T01:23:50.258Z,20.23
2022-08-19T01:24:50.254Z,20.21
2022-08-19T01:25:50.221Z,20.23
2022-08-19T01:26:50.253Z,20.21
2022-08-19T01:27:50.196Z,20.28
2022-08-19T01:28:50.235Z,20.27
2022-08-19T01:29:50.214Z,20.28
2022-08-19T01:30:51.136Z,20.25
2022-08-19T01:31:50.215Z,20.28
2022-08-19T01:32:51.236Z,20.33
2022-08-19T01:33:50.193Z,20.31
2022-08-19T01:34:50.213Z,20.34
2022-08-19T01:35:50.218Z,20.34
2022-08-19T01:36:50.152Z,20.34
2022-08-19T01:37:50.290Z,20.35
2022-08-19T01:38:50.133Z,20.47
2022-08-19T01:39:50.192Z,20.41
2022-08-19T01:40:50.144Z,20.42
2022-08-19T01:41:50.165Z,20.34
2022-08-19T01:42:50.146Z,20.39
2022-08-19T01:44:09.697Z,20.43
2022-08-19T01:44:51.061Z,20.43
2022-08-19T01:45:50.073Z,20.39
2022-08-19T01:46:50.065Z,20.39
2022-08-19T01:47:55.542Z,20.43
2022-08-19T01:48:52.099Z,20.34
2022-08-19T01:49:50.071Z,20.27
2022-08-19T01:50:49.973Z,20.34
2022-08-19T01:51:49.993Z,20.24
2022-08-19T01:52:49.950Z,20.25
2022-08-19T01:53:51.102Z,20.27
2022-08-19T01:54:49.933Z,20.39
2022-08-19T01:55:49.995Z,20.39
2022-08-19T01:56:50.094Z,20.31
2022-08-19T01:57:49.987Z,20.30
2022-08-19T01:58:50.075Z,20.41
2022-08-19T01:59:50.023Z,20.27
2022-08-19T02:00:50.032Z,20.38
2022-08-19T02:01:50.023Z,20.35
2022-08-19T02:02:50.072Z,20.35
2022-08-19T02:03:49.958Z,20.21
2022-08-19T02:04:49.994Z,20.33
2022-08-19T02:05:49.967Z,20.27
2022-08-19T02:06:49.913Z,20.20
2022-08-19T02:07:49.983Z,20.18
2022-08-19T02:08:49.951Z,20.20
2022-08-19T02:09:49.979Z,20.23
2022-08-19T02:10:49.922Z,20.18
2022-08-19T02:11:49.933Z,20.13
2022-08-19T02:12:49.905Z,20.18
2022-08-19T02:13:49.917Z,20.15
2022-08-19T02:14:49.944Z,20.08
2022-08-19T02:15:49.904Z,20.15
2022-08-19T02:16:49.866Z,20.24
2022-08-19T02:17:49.911Z,20.25
2022-08-19T02:18:49.893Z,20.28
2022-08-19T02:19:49.873Z,20.38
2022-08-19T02:20:50.540Z,20.35
2022-08-19T02:21:49.870Z,20.35
2022-08-19T02:22:49.821Z,20.23
2022-08-19T02:23:49.893Z,20.31
2022-08-19T02:24:49.821Z,20.33
2022-08-19T02:26:18.451Z,20.39
2022-08-19T02:26:50.742Z,20.46
2022-08-19T02:27:49.796Z,20.38
2022-08-19T02:28:49.761Z,20.41
2022-08-19T02:29:49.791Z,20.46
2022-08-19T02:30:49.855Z,20.47
2022-08-19T02:31:49.689Z,20.51
2022-08-19T02:32:49.707Z,20.47
2022-08-19T02:33:50.697Z,20.53
2022-08-19T02:34:49.689Z,20.64
2022-08-19T02:35:49.685Z,20.61
2022-08-19T02:36:50.607Z,20.61
2022-08-19T02:37:49.686Z,20.61
2022-08-19T02:38:55.058Z,20.64
2022-08-19T02:39:50.686Z,20.68
2022-08-19T02:40:49.652Z,20.62
2022-08-19T02:41:49.700Z,20.68
2022-08-19T02:42:49.651Z,20.58
2022-08-19T02:44:29.171Z,20.54
2022-08-19T02:44:50.624Z,20.64
2022-08-19T02:45:49.597Z,20.65
2022-08-19T02:46:49.629Z,20.66
2022-08-19T02:47:49.596Z,20.69
2022-08-19T02:48:49.588Z,20.69
2022-08-19T02:49:49.692Z,20.64
2022-08-19T02:50:53.196Z,20.66
2022-08-19T02:51:49.586Z,20.64
2022-08-19T02:52:49.660Z,20.47
2022-08-19T02:53:49.679Z,20.41
2022-08-19T02:54:49.613Z,20.39
2022-08-19T02:55:49.603Z,20.30
2022-08-19T02:56:49.690Z,20.31
2022-08-19T02:57:49.610Z,20.33
2022-08-19T02:58:49.559Z,20.25
2022-08-19T02:59:49.554Z,20.28
2022-08-19T03:00:49.565Z,20.21
2022-08-19T03:01:49.609Z,20.27
2022-08-19T03:02:49.608Z,20.24
2022-08-19T03:03:49.641Z,20.27
2022-08-19T03:04:49.558Z,20.31
2022-08-19T03:05:57.129Z,20.46
2022-08-19T03:06:50.525Z,20.41
2022-08-19T03:07:49.565Z,20.50
2022-08-19T03:08:49.542Z,20.41
2022-08-19T03:09:49.548Z,20.53
2022-08-19T03:10:49.518Z,20.56
2022-08-19T03:11:49.472Z,20.65
2022-08-19T03:12:50.038Z,20.71
2022-08-19T03:13:49.487Z,20.66
2022-08-19T03:14:49.446Z,20.65
2022-08-19T03:15:49.469Z,20.80
2022-08-19T03:16:49.454Z,20.74
2022-08-19T03:17:49.495Z,20.76
2022-08-19T03:18:49.481Z,20.79
2022-08-19T03:19:49.491Z,20.81
2022-08-19T03:20:49.392Z,20.83
2022-08-19T03:21:49.413Z,20.89
2022-08-19T03:22:49.499Z,20.84
2022-08-19T03:23:49.387Z,20.84
2022-08-19T03:24:49.427Z,20.86
2022-08-19T03:25:58.203Z,20.87
2022-08-19T03:26:50.399Z,20.86
2022-08-19T03:27:49.300Z,20.89
2022-08-19T03:28:51.525Z,20.80
2022-08-19T03:29:50.310Z,20.81
2022-08-19T03:30:49.309Z,20.89
2022-08-19T03:31:52.681Z,20.80
2022-08-19T03:32:51.389Z,20.87
2022-08-19T03:33:51.239Z,20.79
2022-08-19T03:34:49.282Z,20.74
2022-08-19T03:35:49.234Z,20.71
2022-08-19T03:36:49.315Z,20.76
2022-08-19T03:37:49.356Z,20.81
2022-08-19T03:38:49.312Z,20.69
2022-08-19T03:39:50.245Z,20.69
2022-08-19T03:40:49.264Z,20.79
2022-08-19T03:41:49.296Z,20.61
2022-08-19T03:42:49.711Z,20.54
2022-08-19T03:43:49.255Z,20.46
2022-08-19T03:44:49.227Z,20.49
2022-08-19T03:45:49.239Z,20.33
2022-08-19T03:46:49.257Z,20.33
2022-08-19T03:47:50.329Z,20.16
2022-08-19T03:48:49.190Z,20.15
2022-08-19T03:49:49.260Z,20.13
2022-08-19T03:50:49.216Z,20.16
2022-08-19T03:51:49.237Z,20.20
2022-08-19T03:52:49.212Z,20.18
2022-08-19T03:53:49.253Z,20.20
2022-08-19T03:54:49.177Z,20.24
2022-08-19T03:55:49.136Z,20.12
2022-08-19T03:56:49.258Z,20.06
2022-08-19T03:57:49.153Z,20.03
2022-08-19T03:58:49.193Z,20.00
2022-08-19T03:59:49.194Z,19.98
2022-08-19T04:00:49.209Z,19.97
2022-08-19T04:01:49.120Z,19.88
2022-08-19T04:03:00.059Z,19.88
2022-08-19T04:03:50.152Z,19.86
2022-08-19T04:04:49.079Z,19.88
2022-08-19T04:05:49.157Z,19.95
2022-08-19T04:06:49.103Z,19.88
2022-08-19T04:07:49.073Z,19.95
2022-08-19T04:08:49.113Z,19.95
2022-08-19T04:09:49.111Z,19.90
2022-08-19T04:10:49.105Z,19.95
2022-08-19T04:11:49.082Z,19.90
2022-08-19T04:12:49.180Z,19.95
2022-08-19T04:13:49.058Z,19.87
2022-08-19T04:14:49.177Z,19.88
2022-08-19T04:15:49.021Z,19.94
2022-08-19T04:16:49.031Z,19.93
2022-08-19T04:17:49.030Z,19.95
2022-08-19T04:18:49.419Z,19.83
2022-08-19T04:19:49.013Z,19.88
2022-08-19T04:20:48.911Z,19.87
2022-08-19T04:21:48.908Z,19.91
2022-08-19T04:22:48.888Z,19.86
2022-08-19T04:23:48.872Z,19.76
2022-08-19T04:24:48.898Z,19.75
2022-08-19T04:25:48.930Z,19.87
2022-08-19T04:26:48.858Z,19.79
2022-08-19T04:27:48.826Z,19.76
2022-08-19T04:28:48.868Z,19.86
2022-08-19T04:29:48.834Z,19.80
2022-08-19T04:30:48.883Z,19.72
2022-08-19T04:31:48.871Z,19.79
2022-08-19T04:32:49.001Z,19.78
2022-08-19T04:33:49.014Z,19.88
2022-08-19T04:35:01.559Z,19.80
2022-08-19T04:35:49.898Z,19.84
2022-08-19T04:36:48.880Z,19.76
2022-08-19T04:37:48.939Z,19.76
2022-08-19T04:38:48.906Z,19.83
2022-08-19T04:40:02.916Z,19.83
2022-08-19T04:40:49.864Z,19.76
2022-08-19T04:41:48.817Z,19.86
2022-08-19T04:42:48.915Z,19.88
2022-08-19T04:43:48.813Z,19.83
2022-08-19T04:44:48.733Z,19.78
2022-08-19T04:45:48.833Z,19.80
2022-08-19T04:46:51.536Z,19.84
2022-08-19T04:47:58.975Z,19.84
2022-08-19T04:48:49.740Z,19.76
2022-08-19T04:49:48.815Z,19.90
2022-08-19T04:50:48.814Z,19.86
2022-08-19T04:51:48.777Z,19.90
2022-08-19T04:52:48.774Z,19.91
2022-08-19T04:53:48.771Z,19.93
2022-08-19T04:54:48.775Z,19.94
2022-08-19T04:55:48.737Z,19.87
2022-08-19T04:56:48.997Z,19.91
2022-08-19T04:57:48.705Z,19.94
2022-08-19T04:58:48.741Z,19.94
2022-08-19T04:59:48.710Z,19.93
2022-08-19T05:00:48.724Z,19.91
2022-08-19T05:01:48.710Z,19.95
2022-08-19T05:02:48.782Z,20.00
2022-08-19T05:03:48.667Z,20.02
2022-08-19T05:04:48.635Z,19.94
2022-08-19T05:05:48.675Z,20.02
2022-08-19T05:06:48.654Z,20.09
2022-08-19T05:07:48.686Z,20.18
2022-08-19T05:08:48.649Z,20.27
2022-08-19T05:09:58.013Z,20.21
2022-08-19T05:10:49.638Z,20.25
2022-08-19T05:11:48.641Z,20.30
2022-08-19T05:12:48.653Z,20.34
2022-08-19T05:13:48.596Z,20.42
2022-08-19T05:14:48.602Z,20.53
2022-08-19T05:15:48.644Z,20.46
2022-08-19T05:16:48.555Z,20.64
2022-08-19T05:17:49.647Z,20.62
2022-08-19T05:18:48.496Z,20.59
2022-08-19T05:19:48.609Z,20.58
2022-08-19T05:20:48.600Z,20.71
2022-08-19T05:21:48.603Z,20.69
2022-08-19T05:22:49.554Z,20.65
2022-08-19T05:23:48.545Z,20.59
2022-08-19T05:25:11.139Z,20.68
2022-08-19T05:25:50.422Z,20.71
2022-08-19T05:26:48.530Z,20.72
2022-08-19T05:27:48.528Z,20.74
2022-08-19T05:28:51.029Z,20.91
2022-08-19T05:29:48.498Z,20.89
2022-08-19T05:30:48.488Z,20.90
2022-08-19T05:31:48.416Z,20.91
2022-08-19T05:32:48.495Z,20.96
2022-08-19T05:33:48.416Z,21.06
2022-08-19T05:34:48.380Z,21.11
2022-08-19T05:35:48.354Z,21.21
2022-08-19T05:36:48.356Z,21.20
2022-08-19T05:37:48.339Z,21.09
2022-08-19T05:38:49.411Z,21.16
2022-08-19T05:39:51.399Z,21.27
2022-08-19T05:40:49.334Z,21.19
2022-08-19T05:41:48.320Z,21.21
2022-08-19T05:42:55.233Z,21.16
2022-08-19T05:43:49.318Z,21.20
2022-08-19T05:44:48.315Z,21.08
2022-08-19T05:45:48.283Z,21.17
2022-08-19T05:46:48.294Z,21.16
2022-08-19T05:47:48.268Z,21.16
2022-08-19T05:48:48.295Z,21.14
2022-08-19T05:49:59.961Z,21.19
2022-08-19T05:50:48.273Z,21.16
2022-08-19T05:51:48.337Z,21.17
2022-08-19T05:52:50.702Z,21.16
2022-08-19T05:53:48.356Z,21.17
2022-08-19T05:54:48.360Z,21.26
2022-08-19T05:55:48.318Z,21.24
2022-08-19T05:56:48.301Z,21.17
2022-08-19T05:57:48.329Z,21.19
2022-08-19T05:58:48.264Z,21.30
2022-08-19T05:59:48.340Z,21.30
2022-08-19T06:00:48.301Z,21.29
2022-08-19T06:01:48.294Z,21.29
2022-08-19T06:02:48.382Z,21.14
2022-08-19T06:03:48.294Z,21.32
2022-08-19T06:04:48.260Z,21.26
2022-08-19T06:05:51.665Z,21.23
2022-08-19T06:06:48.271Z,21.11
2022-08-19T06:07:48.256Z,21.14
2022-08-19T06:08:48.233Z,21.11
2022-08-19T06:09:59.181Z,21.17
2022-08-19T06:10:49.131Z,21.24
2022-08-19T06:11:48.617Z,21.29
2022-08-19T06:12:48.191Z,21.27
2022-08-19T06:13:48.182Z,21.27
2022-08-19T06:14:48.191Z,21.21
2022-08-19T06:15:49.248Z,21.36
2022-08-19T06:16:48.160Z,21.24
2022-08-19T06:17:48.186Z,21.29
2022-08-19T06:18:48.154Z,21.23
2022-08-19T06:19:48.121Z,21.24
2022-08-19T06:20:56.263Z,21.30
2022-08-19T06:21:50.176Z,21.32
2022-08-19T06:22:48.025Z,21.29
2022-08-19T06:23:49.090Z,21.27
2022-08-19T06:24:48.086Z,21.39
2022-08-19T06:26:57.998Z,21.38
2022-08-19T06:28:14.932Z,21.34
2022-08-19T06:28:58.177Z,21.35
2022-08-19T06:29:56.149Z,21.26
2022-08-19T06:30:56.125Z,21.24
2022-08-19T06:31:56.213Z,21.20
2022-08-19T06:32:56.075Z,21.20
2022-08-19T06:33:56.063Z,21.21
2022-08-19T06:34:56.056Z,21.21
2022-08-19T06:35:56.032Z,21.29
2022-08-19T06:36:56.038Z,21.24
2022-08-19T06:37:56.218Z,21.29
2022-08-19T06:38:56.000Z,21.35
2022-08-19T06:39:56.001Z,21.35
2022-08-19T06:40:55.977Z,21.54
2022-08-19T06:41:58.686Z,21.54
2022-08-19T06:42:56.302Z,21.74
2022-08-19T06:43:56.458Z,21.83
2022-08-19T06:44:56.036Z,22.01
2022-08-19T06:45:55.975Z,21.94
2022-08-19T06:46:55.966Z,22.01
2022-08-19T06:47:56.095Z,21.97
2022-08-19T06:48:56.031Z,21.92
2022-08-19T06:49:56.048Z,22.04
2022-08-19T06:50:56.948Z,22.07
2022-08-19T06:51:56.038Z,22.01
2022-08-19T06:52:56.145Z,22.06
2022-08-19T06:53:56.074Z,22.06
2022-08-19T06:54:56.937Z,22.06
2022-08-19T06:55:55.898Z,22.02
2022-08-19T06:56:56.003Z,22.06
2022-08-19T06:57:56.013Z,21.90
2022-08-19T06:58:56.032Z,21.76
2022-08-19T06:59:56.015Z,21.67
2022-08-19T07:00:55.917Z,21.75
2022-08-19T07:01:56.011Z,21.79
2022-08-19T07:03:00.073Z,21.79
2022-08-19T07:03:58.171Z,21.92
2022-08-19T07:04:55.942Z,21.99
2022-08-19T07:05:55.927Z,21.90
2022-08-19T07:06:55.917Z,21.90
2022-08-19T07:07:58.246Z,21.92
2022-08-19T07:08:56.951Z,21.94
2022-08-19T07:09:59.415Z,21.90
2022-08-19T07:10:56.852Z,22.06
2022-08-19T07:11:55.886Z,22.04
2022-08-19T07:12:55.875Z,22.01
2022-08-19T07:13:55.826Z,22.13
2022-08-19T07:14:55.861Z,22.09
2022-08-19T07:15:55.812Z,21.97
2022-08-19T07:16:55.832Z,21.91
2022-08-19T07:17:55.840Z,21.92
2022-08-19T07:18:55.810Z,21.99
2022-08-19T07:19:55.862Z,21.98
2022-08-19T07:20:55.849Z,21.99
2022-08-19T07:21:55.774Z,21.95
2022-08-19T07:22:56.126Z,21.91
2022-08-19T07:23:55.801Z,22.06
2022-08-19T07:24:55.910Z,22.06
2022-08-19T07:25:55.820Z,22.09
2022-08-19T07:26:55.777Z,22.04
2022-08-19T07:27:56.931Z,22.04
2022-08-19T07:28:56.867Z,22.10
2022-08-19T07:29:57.224Z,22.12
2022-08-19T07:30:55.670Z,22.22
2022-08-19T07:31:55.648Z,22.23
2022-08-19T07:32:55.663Z,22.29
2022-08-19T07:33:55.599Z,22.41
2022-08-19T07:34:56.402Z,22.38
2022-08-19T07:35:55.638Z,22.44
2022-08-19T07:36:55.675Z,22.46
2022-08-19T07:37:55.714Z,22.43
2022-08-19T07:38:55.607Z,22.46
2022-08-19T07:39:55.613Z,22.44
2022-08-19T07:40:55.599Z,22.50
2022-08-19T07:41:55.583Z,22.62
2022-08-19T07:42:55.615Z,22.54
2022-08-19T07:43:55.661Z,22.65
2022-08-19T07:44:55.596Z,22.60
2022-08-19T07:45:55.777Z,22.49
2022-08-19T07:46:55.587Z,22.50
2022-08-19T07:47:55.709Z,22.39
2022-08-19T07:48:55.586Z,22.50
2022-08-19T07:49:55.616Z,22.43
2022-08-19T07:50:55.648Z,22.27
2022-08-19T07:51:55.575Z,22.31
2022-08-19T07:52:55.565Z,22.37
2022-08-19T07:53:55.577Z,22.34
2022-08-19T07:54:55.545Z,22.46
2022-08-19T07:55:55.551Z,22.37
2022-08-19T07:56:55.546Z,22.43
2022-08-19T07:57:55.576Z,22.47
2022-08-19T07:59:56.494Z,22.47
2022-08-19T08:00:55.528Z,22.47
2022-08-19T08:01:55.573Z,22.49
2022-08-19T08:02:56.194Z,22.52
2022-08-19T08:03:55.457Z,22.62
2022-08-19T08:04:55.530Z,22.59
2022-08-19T08:05:55.519Z,22.57
2022-08-19T08:06:55.647Z,22.65
2022-08-19T08:07:55.478Z,22.71
2022-08-19T08:08:55.507Z,22.77
2022-08-19T08:10:57.070Z,22.96
2022-08-19T08:11:55.395Z,22.94
2022-08-19T08:13:08.793Z,23.11
2022-08-19T08:14:00.509Z,23.17
2022-08-19T08:14:55.849Z,23.09
2022-08-19T08:15:56.406Z,23.14
2022-08-19T08:16:55.375Z,23.04
2022-08-19T08:17:55.309Z,23.27
2022-08-19T08:18:55.283Z,23.35
2022-08-19T08:19:55.366Z,23.35
2022-08-19T08:20:55.300Z,23.31
2022-08-19T08:21:55.265Z,23.47
2022-08-19T08:22:55.308Z,23.57
2022-08-19T08:23:56.393Z,23.50
2022-08-19T08:24:56.257Z,23.71
2022-08-19T08:25:55.241Z,23.86
2022-08-19T08:26:57.650Z,23.90
2022-08-19T08:27:55.451Z,23.97
2022-08-19T08:28:55.338Z,23.97
2022-08-19T08:29:55.392Z,24.05
2022-08-19T08:30:55.300Z,23.98
2022-08-19T08:31:59.727Z,24.01
2022-08-19T08:32:55.260Z,24.13
2022-08-19T08:33:55.293Z,24.02
2022-08-19T08:34:55.237Z,24.14
2022-08-19T08:35:55.275Z,24.19
2022-08-19T08:36:55.254Z,24.17
2022-08-19T08:37:55.566Z,24.20
2022-08-19T08:39:55.242Z,24.47
2022-08-19T08:40:55.255Z,24.22
2022-08-19T08:41:55.253Z,24.32
2022-08-19T08:42:55.270Z,24.41
2022-08-19T08:43:55.221Z,24.54
2022-08-19T08:45:55.199Z,24.56
2022-08-19T08:46:55.143Z,24.75
2022-08-19T08:47:55.282Z,24.64
2022-08-19T08:48:55.153Z,24.83
2022-08-19T08:49:56.148Z,24.63
2022-08-19T08:50:55.265Z,24.38
2022-08-19T08:51:59.466Z,24.23
2022-08-19T08:52:56.225Z,24.19
2022-08-19T08:53:55.945Z,24.05
2022-08-19T08:54:55.887Z,24.08
2022-08-19T08:55:55.106Z,24.14
2022-08-19T08:56:55.160Z,24.14
2022-08-19T08:57:55.183Z,23.98
2022-08-19T08:58:55.157Z,23.80
2022-08-19T08:59:55.105Z,23.65
2022-08-19T09:00:55.087Z,23.52
2022-08-19T09:01:55.354Z,23.43
2022-08-19T09:02:54.982Z,23.29
2022-08-19T09:03:54.999Z,23.45
2022-08-19T09:04:54.945Z,23.24
2022-08-19T09:05:54.992Z,23.43
2022-08-19T09:06:54.938Z,23.47
2022-08-19T09:07:55.001Z,23.45
2022-08-19T09:08:56.875Z,23.58
2022-08-19T09:09:56.078Z,23.75
2022-08-19T09:10:55.385Z,23.89
2022-08-19T09:11:54.942Z,23.95
2022-08-19T09:12:54.906Z,24.16
2022-08-19T09:13:54.867Z,24.19
2022-08-19T09:14:54.969Z,24.07
2022-08-19T09:15:54.856Z,24.16
2022-08-19T09:16:54.852Z,24.37
2022-08-19T09:17:54.956Z,24.39
2022-08-19T09:18:54.847Z,24.52
2022-08-19T09:19:54.977Z,24.61
2022-08-19T09:20:54.976Z,24.56
2022-08-19T09:21:54.826Z,24.54
2022-08-19T09:22:54.855Z,24.60
2022-08-19T09:23:54.925Z,24.76
2022-08-19T09:24:54.931Z,24.68
2022-08-19T09:25:54.914Z,24.57
2022-08-19T09:26:54.907Z,24.53
2022-08-19T09:27:55.360Z,24.64
2022-08-19T09:28:55.865Z,24.53
2022-08-19T09:29:54.929Z,24.71
2022-08-19T09:30:54.862Z,24.42
2022-08-19T09:31:54.832Z,24.44
2022-08-19T09:32:54.933Z,24.54
2022-08-19T09:33:54.833Z,24.63
2022-08-19T09:34:54.844Z,24.69
2022-08-19T09:35:54.763Z,24.69
2022-08-19T09:36:54.948Z,24.83
2022-08-19T09:37:57.464Z,24.82
2022-08-19T09:38:54.837Z,24.71
2022-08-19T09:39:54.795Z,24.90
2022-08-19T09:40:54.822Z,24.83
2022-08-19T09:41:54.790Z,24.67
2022-08-19T09:42:54.779Z,24.53
2022-08-19T09:43:54.758Z,24.47
2022-08-19T09:44:54.659Z,24.52
2022-08-19T09:45:54.778Z,24.54
2022-08-19T09:46:54.729Z,24.64
2022-08-19T09:47:55.319Z,24.85
2022-08-19T09:48:54.726Z,25.02
2022-08-19T09:49:54.742Z,24.97
2022-08-19T11:47:22.036Z,27.77
2022-08-19T11:48:23.280Z,27.74
2022-08-19T11:49:23.357Z,27.98
2022-08-19T11:50:23.267Z,28.03
2022-08-19T11:51:23.330Z,28.21
2022-08-19T11:52:23.349Z,28.11
2022-08-19T11:53:23.265Z,28.22
2022-08-19T11:54:23.229Z,27.82
2022-08-19T11:55:23.267Z,27.69
2022-08-19T11:56:23.276Z,27.69
2022-08-19T11:57:23.252Z,27.73
2022-08-19T11:58:23.284Z,27.50
2022-08-19T11:59:23.248Z,27.43
2022-08-19T12:00:23.243Z,27.66
2022-08-19T12:01:23.227Z,27.88
2022-08-19T12:02:23.220Z,28.14
2022-08-19T12:03:23.252Z,28.28
2022-08-19T12:04:23.204Z,28.35
2022-08-19T12:05:23.100Z,28.29
2022-08-19T12:06:23.089Z,28.36
2022-08-19T12:07:23.122Z,28.29
2022-08-19T12:08:23.132Z,28.17
2022-08-19T12:09:23.081Z,27.98
2022-08-19T12:10:26.298Z,27.89
2022-08-19T12:11:24.043Z,27.76
2022-08-19T12:12:23.020Z,27.74
2022-08-19T12:13:23.057Z,27.67
2022-08-19T12:14:23.097Z,27.66
2022-08-19T12:15:23.052Z,27.47
2022-08-19T12:16:23.031Z,27.14
2022-08-19T12:17:23.106Z,27.28
2022-08-19T12:18:23.118Z,27.35
2022-08-19T12:19:23.250Z,27.46
2022-08-19T12:20:23.086Z,27.46
2022-08-19T12:21:23.117Z,27.58
2022-08-19T12:22:23.074Z,27.33
2022-08-19T12:23:23.040Z,27.24
2022-08-19T12:24:23.138Z,27.05
2022-08-19T12:25:23.045Z,27.21
2022-08-19T12:26:23.067Z,27.17
2022-08-19T12:27:31.086Z,27.23
2022-08-19T12:28:24.955Z,27.36
2022-08-19T12:29:24.078Z,27.06
2022-08-19T12:30:24.094Z,26.92
2022-08-19T12:31:23.006Z,26.84
2022-08-19T12:32:23.001Z,26.72
2022-08-19T12:33:23.020Z,26.76
2022-08-19T12:34:23.005Z,26.76
2022-08-19T12:35:23.058Z,26.81
2022-08-19T12:36:22.938Z,26.96
2022-08-19T12:37:23.017Z,27.26
2022-08-19T12:38:22.940Z,27.48
2022-08-19T12:39:22.928Z,27.64
2022-08-19T12:40:22.983Z,28.01
2022-08-19T12:41:22.908Z,28.16
2022-08-19T12:42:22.933Z,28.44
2022-08-19T12:43:22.930Z,28.56
2022-08-19T12:44:29.520Z,28.63
2022-08-19T12:45:23.890Z,28.70
2022-08-19T12:46:25.379Z,28.56
2022-08-19T12:47:22.896Z,28.56
2022-08-19T12:48:31.373Z,28.26
2022-08-19T12:49:44.461Z,28.25
2022-08-19T12:50:23.789Z,28.10
2022-08-19T12:51:22.898Z,27.86
2022-08-19T12:52:23.535Z,27.88
2022-08-19T12:53:22.869Z,27.71
2022-08-19T12:54:22.884Z,27.86
2022-08-19T12:55:22.840Z,27.80
2022-08-19T12:56:23.466Z,27.50
2022-08-19T12:57:31.617Z,27.28
2022-08-19T12:58:27.179Z,27.13
2022-08-19T12:59:23.806Z,27.26
2022-08-19T13:00:22.872Z,27.29
2022-08-19T13:01:23.514Z,27.53
2022-08-19T13:02:22.766Z,27.71
2022-08-19T13:03:22.794Z,28.10
2022-08-19T13:04:22.781Z,28.04
2022-08-19T13:05:22.711Z,27.80
2022-08-19T13:06:22.720Z,27.79
2022-08-19T13:07:22.726Z,27.79
2022-08-19T13:08:22.636Z,28.01
2022-08-19T13:09:22.659Z,28.21
2022-08-19T13:10:22.682Z,28.23
2022-08-19T13:11:22.663Z,28.43
2022-08-19T13:12:24.928Z,28.41
2022-08-19T13:13:22.629Z,28.48
2022-08-19T13:14:22.633Z,28.58
2022-08-19T13:15:24.147Z,28.62
2022-08-19T13:16:23.635Z,28.63
2022-08-19T13:17:22.668Z,28.60
2022-08-19T13:18:22.606Z,28.44
2022-08-19T13:19:22.668Z,28.41
2022-08-19T13:20:22.695Z,28.38
2022-08-19T13:21:23.187Z,28.44
2022-08-19T13:22:22.713Z,28.66
2022-08-19T13:23:22.673Z,28.62
2022-08-19T13:24:22.653Z,28.46
2022-08-19T13:25:23.556Z,28.01
2022-08-19T13:26:22.648Z,27.80
2022-08-19T13:27:22.659Z,27.92
2022-08-19T13:28:22.600Z,27.76
2022-08-19T13:29:23.541Z,27.88
2022-08-19T13:30:22.564Z,27.80
2022-08-19T13:31:22.602Z,27.76
2022-08-19T13:32:22.609Z,27.61
2022-08-19T13:33:22.567Z,27.21
2022-08-19T13:34:22.538Z,27.16
2022-08-19T13:35:22.575Z,27.04
2022-08-19T13:36:22.554Z,27.01
2022-08-19T13:37:22.613Z,27.14
2022-08-19T13:38:22.537Z,27.26
2022-08-19T13:39:22.550Z,27.35
2022-08-19T13:40:22.497Z,27.43
2022-08-19T13:41:22.572Z,27.57
2022-08-19T13:42:22.544Z,27.61
2022-08-19T13:43:23.565Z,27.43
2022-08-19T13:44:22.485Z,27.33
2022-08-19T13:45:22.403Z,27.20
2022-08-19T13:46:22.482Z,27.21
2022-08-19T13:47:22.488Z,27.67
2022-08-19T13:48:22.548Z,28.07
2022-08-19T13:49:22.480Z,28.22
2022-08-19T13:50:22.472Z,28.43
2022-08-19T13:51:22.382Z,28.59
2022-08-19T13:52:22.431Z,28.59
2022-08-19T13:53:22.434Z,28.62
2022-08-19T13:54:22.427Z,28.47
2022-08-19T13:55:24.830Z,28.56
2022-08-19T13:56:26.076Z,28.65
2022-08-19T13:57:23.464Z,28.77
2022-08-19T13:58:22.351Z,28.81
2022-08-19T13:59:55.321Z,28.81
2022-08-19T14:00:22.299Z,28.69
2022-08-19T14:01:22.337Z,28.58
2022-08-19T14:02:22.383Z,28.53
2022-08-19T14:03:22.291Z,28.43
2022-08-19T14:04:22.445Z,28.59
2022-08-19T14:05:22.278Z,28.60
2022-08-19T14:06:22.360Z,28.63
2022-08-19T14:07:22.268Z,29.38
2022-08-19T14:08:22.336Z,30.08
2022-08-19T14:09:22.279Z,29.89
2022-08-19T14:10:22.272Z,29.77
2022-08-19T14:11:22.219Z,30.50
2022-08-19T14:12:29.039Z,31.30
2022-08-19T14:13:23.221Z,31.62
2022-08-19T14:14:22.276Z,31.68
2022-08-19T14:15:22.233Z,31.58
2022-08-19T14:16:22.204Z,31.50
2022-08-19T14:17:23.229Z,31.67
2022-08-19T14:18:22.198Z,31.98
2022-08-19T14:19:22.396Z,32.49
2022-08-19T14:20:22.185Z,32.92
2022-08-19T14:21:22.165Z,33.10
2022-08-19T14:22:22.477Z,33.43
2022-08-19T14:23:22.148Z,33.79
2022-08-19T14:24:22.198Z,34.26
2022-08-19T14:25:22.262Z,34.50
2022-08-19T14:26:22.233Z,34.44
2022-08-19T14:27:22.209Z,34.64
2022-08-19T14:28:23.199Z,34.95
2022-08-19T14:29:23.101Z,35.23
2022-08-19T14:30:22.258Z,35.14
2022-08-19T14:31:22.227Z,34.89
2022-08-19T14:32:22.190Z,34.92
2022-08-19T14:33:22.175Z,34.53
2022-08-19T14:34:23.040Z,34.42
2022-08-19T14:35:22.204Z,35.03
2022-08-19T14:36:22.142Z,35.48
2022-08-19T14:37:22.155Z,35.17
2022-08-19T14:38:31.271Z,34.89
2022-08-19T14:39:23.050Z,33.71
2022-08-19T14:40:22.137Z,32.15
2022-08-19T14:41:22.169Z,31.68
2022-08-19T14:42:22.122Z,31.75
2022-08-19T14:43:22.103Z,31.98
2022-08-19T14:44:22.091Z,32.54
2022-08-19T14:45:22.057Z,32.57
2022-08-19T14:46:22.123Z,31.45
2022-08-19T14:47:22.082Z,30.91
2022-08-19T14:48:22.092Z,31.17
2022-08-19T14:49:31.956Z,31.39
2022-08-19T14:50:23.082Z,31.17
2022-08-19T14:51:22.110Z,31.53
2022-08-19T14:52:22.090Z,31.42
2022-08-19T14:53:22.037Z,30.65
2022-08-19T14:54:22.089Z,30.30